Morganville, Kansas
Current Conditions -  °F | °C
As of 8:55 PM on Monday 26 Jan 2015 (Local Time) from KCNK Reporting Station
Clear Clear  
Wind Chill: 44°   Ceiling: Unl
Heat Index: 47°   Visibility: 10mi
Dew Point: 33°   Wind: 6mph
Humidity: 59%   Direction: 250°WSW
Pressure: 30.04"   Gusts: NA
Location:  39.47°N, 97.2°W
Report Text: KCNK 270255Z AUTO 25005KT 10SM CLR 08/01 A3004 RMK AO2 SLP180 T00830006 51010
Loading
Personal Weather Stations






























Interactive Weather Map New forecast layout! Learn more

10-Day Weather Forecast

Advertisements
Track Severe Weather on mobile